Time;durP1;ratioP1;P1;durP2;ratioP2;P2;SDS_P1;SDS_P2;PMS_P1;PMS_P2;Temp;Humidity;BMP_temperature;BMP_pressure;BME280_temperature;BME280_humidity;BME280_pressure;Samples;Min_cycle;Max_cycle;Signal;HPM_P1;HPM_P2
2023/05/23 00:01:05;;;;;;;0.40;0.40;;;;;;;21.45;54.44;101332.16;5075334;28;20051;-47
2023/05/23 00:03:31;;;;;;;0.20;0.20;;;;;;;21.44;54.44;101324.97;5075984;28;20108;-48
2023/05/23 00:05:58;;;;;;;0.20;0.20;;;;;;;21.44;54.30;101334.13;5093955;28;20054;-47
2023/05/23 00:08:24;;;;;;;0.20;0.20;;;;;;;21.44;54.44;101323.03;5075011;28;20403;-47
2023/05/23 00:10:50;;;;;;;0.28;0.28;;;;;;;21.45;54.44;101326.63;5092772;28;20047;-48
2023/05/23 00:13:16;;;;;;;0.20;0.20;;;;;;;21.44;54.27;101323.03;5093747;28;20043;-48
2023/05/23 00:15:42;;;;;;;0.20;0.20;;;;;;;21.44;54.30;101331.34;5076092;28;20067;-48
2023/05/23 00:18:10;;;;;;;0.20;0.20;;;;;;;21.45;54.31;101332.16;5078490;28;20048;-48
2023/05/23 00:20:39;;;;;;;0.20;0.20;;;;;;;21.44;54.24;101330.53;5097164;28;20045;-47
2023/05/23 00:23:06;;;;;;;0.20;0.20;;;;;;;21.45;54.37;101334.94;5086753;28;20206;-48
2023/05/23 00:25:34;;;;;;;0.25;0.20;;;;;;;21.46;54.17;101333.81;5097630;28;20120;-48
2023/05/23 00:28:01;;;;;;;0.20;0.20;;;;;;;21.44;54.15;101325.81;5069532;28;20043;-48
2023/05/23 00:30:28;;;;;;;0.20;0.20;;;;;;;21.43;54.20;101332.47;5061829;28;20062;-47
2023/05/23 00:32:54;;;;;;;0.20;0.20;;;;;;;21.45;53.97;101332.16;5102658;28;20051;-46
2023/05/23 00:35:20;;;;;;;0.20;0.20;;;;;;;21.45;54.14;101333.00;5097222;28;20038;-47
2023/05/23 00:37:46;;;;;;;0.20;0.20;;;;;;;21.45;54.13;101338.53;5078692;28;20480;-48
2023/05/23 00:40:12;;;;;;;0.20;0.20;;;;;;;21.45;54.01;101338.53;5096644;28;20392;-49
2023/05/23 00:42:37;;;;;;;0.20;0.20;;;;;;;21.44;54.02;101342.44;5097204;28;20094;-48
2023/05/23 00:45:04;;;;;;;0.20;0.20;;;;;;;21.44;54.12;101341.59;5096604;28;20472;-47
2023/05/23 00:47:30;;;;;;;0.10;0.10;;;;;;;21.44;54.14;101347.97;5090395;28;20169;-49
2023/05/23 00:49:56;;;;;;;0.20;0.20;;;;;;;21.43;54.06;101349.09;5097145;28;20530;-47
2023/05/23 00:52:22;;;;;;;0.20;0.20;;;;;;;21.44;54.12;101352.69;5096495;28;20169;-49
2023/05/23 00:54:48;;;;;;;0.20;0.20;;;;;;;21.44;54.12;101352.69;5096935;28;20039;-48
2023/05/23 00:57:14;;;;;;;0.20;0.20;;;;;;;21.43;54.06;101360.19;5097005;28;20383;-47
2023/05/23 00:59:39;;;;;;;0.20;0.20;;;;;;;21.43;54.00;101370.44;5096641;28;20395;-47
2023/05/23 01:02:05;;;;;;;0.20;0.20;;;;;;;21.42;54.19;101366.00;5096307;28;20062;-48
2023/05/23 01:04:32;;;;;;;0.20;0.20;;;;;;;21.42;54.11;101363.25;5078519;28;20048;-46
2023/05/23 01:06:59;;;;;;;0.20;0.20;;;;;;;21.42;54.11;101358.53;5078233;28;20071;-48
2023/05/23 01:09:27;;;;;;;0.20;0.20;;;;;;;21.43;54.11;101359.34;5096620;28;20117;-47
2023/05/23 01:12:18;;;;;;;0.10;0.10;;;;;;;21.43;53.77;101368.50;5078130;28;20048;-47
2023/05/23 01:14:50;;;;;;;0.20;0.20;;;;;;;21.42;54.15;101361.28;5081905;28;20298;-48
2023/05/23 01:17:23;;;;;;;0.20;0.20;;;;;;;21.41;54.18;101362.38;5078082;28;20083;-47
2023/05/23 01:19:57;;;;;;;0.20;0.20;;;;;;;21.42;54.07;101366.00;5079018;28;20039;-47
2023/05/23 01:23:00;;;;;;;0.20;0.20;;;;;;;21.41;54.11;101365.16;5077784;28;20055;-47
2023/05/23 01:25:57;;;;;;;0.20;0.20;;;;;;;21.41;53.99;101364.34;5075349;28;20521;-46
2023/05/23 01:28:27;;;;;;;0.10;0.10;;;;;;;21.41;54.01;101359.63;5080608;28;20067;-46
2023/05/23 01:30:56;;;;;;;0.20;0.20;;;;;;;21.41;53.93;101375.41;5077596;28;20425;-47
2023/05/23 01:33:23;;;;;;;0.30;0.30;;;;;;;21.41;53.83;101373.47;5083025;28;20125;-47
2023/05/23 01:35:49;;;;;;;0.20;0.20;;;;;;;21.40;54.10;101371.00;5096011;28;20744;-46
2023/05/23 01:38:15;;;;;;;0.20;0.20;;;;;;;21.40;53.96;101376.53;5095508;28;20565;-49
2023/05/23 01:40:40;;;;;;;0.20;0.20;;;;;;;21.40;54.08;101376.53;5096095;28;20074;-47
2023/05/23 01:43:06;;;;;;;0.20;0.20;;;;;;;21.40;54.11;101380.13;5096035;28;20051;-47
2023/05/23 01:45:32;;;;;;;0.20;0.20;;;;;;;21.39;53.98;101381.25;5095596;28;20084;-47
2023/05/23 01:47:59;;;;;;;0.20;0.20;;;;;;;21.38;53.91;101371.28;5077726;28;20080;-48
2023/05/23 01:50:25;;;;;;;0.20;0.20;;;;;;;21.39;54.08;101380.44;5094817;28;20043;-47
2023/05/23 01:52:52;;;;;;;0.20;0.20;;;;;;;21.39;53.75;101381.25;5096089;28;20105;-46
2023/05/23 01:55:21;;;;;;;0.20;0.20;;;;;;;21.40;54.07;101376.53;5095755;28;20541;-47
2023/05/23 01:57:50;;;;;;;0.20;0.20;;;;;;;21.39;53.89;101377.66;5095459;28;20043;-47
2023/05/23 02:00:16;;;;;;;0.20;0.20;;;;;;;21.38;53.95;101378.78;5077278;28;20051;-48
2023/05/23 02:02:42;;;;;;;0.20;0.20;;;;;;;21.39;53.98;101383.19;5077929;28;20051;-47
2023/05/23 02:05:09;;;;;;;0.10;0.10;;;;;;;21.38;53.85;101370.47;5095185;28;20044;-47
2023/05/23 02:07:35;;;;;;;0.10;0.10;;;;;;;21.38;53.98;101381.53;5077066;28;20040;-46
2023/05/23 02:10:02;;;;;;;0.20;0.20;;;;;;;21.37;53.81;101386.22;5076530;28;20043;-47
2023/05/23 02:12:28;;;;;;;0.20;0.20;;;;;;;21.38;53.84;101384.31;5077180;28;20039;-48
2023/05/23 02:14:54;;;;;;;0.20;0.20;;;;;;;21.39;53.71;101383.19;5095151;28;20046;-47
2023/05/23 02:17:20;;;;;;;0.20;0.20;;;;;;;21.39;53.68;101386.78;5095926;28;20039;-47
2023/05/23 02:19:47;;;;;;;0.20;0.20;;;;;;;21.40;53.68;101384.84;5095745;28;20051;-47
2023/05/23 02:22:13;;;;;;;0.20;0.20;;;;;;;21.39;53.79;101385.97;5060749;28;20510;-48
2023/05/23 02:24:39;;;;;;;0.20;0.20;;;;;;;21.39;53.75;101377.66;5077870;28;20146;-48
2023/05/23 02:27:05;;;;;;;0.10;0.10;;;;;;;21.37;53.77;101383.47;5077861;28;20280;-48
2023/05/23 02:29:31;;;;;;;0.20;0.20;;;;;;;21.37;53.77;101377.09;5094714;28;20055;-47
2023/05/23 02:31:57;;;;;;;0.40;0.40;;;;;;;21.37;53.83;101383.47;5078204;28;20055;-47
2023/05/23 02:34:22;;;;;;;0.20;0.20;;;;;;;21.37;53.61;101383.47;5092844;28;20445;-48
2023/05/23 02:36:48;;;;;;;0.20;0.20;;;;;;;21.38;53.59;101387.09;5077035;28;20098;-48
2023/05/23 02:39:14;;;;;;;0.10;0.10;;;;;;;21.37;53.61;101393.72;5095133;28;20127;-48
2023/05/23 02:41:40;;;;;;;0.10;0.10;;;;;;;21.37;53.71;101393.72;5076249;28;20067;-48
2023/05/23 02:44:05;;;;;;;0.20;0.20;;;;;;;21.37;53.88;101396.50;5095925;28;20075;-47
2023/05/23 02:46:31;;;;;;;0.20;0.20;;;;;;;21.36;53.75;101398.44;5094861;28;20093;-51
2023/05/23 02:48:57;;;;;;;0.20;0.20;;;;;;;21.37;53.57;101404.81;5091835;28;20618;-47
2023/05/23 02:51:23;;;;;;;0.20;0.20;;;;;;;21.36;53.74;101398.44;5094424;28;21323;-47
2023/05/23 02:53:48;;;;;;;0.10;0.10;;;;;;;21.37;53.62;101404.81;5095450;28;20043;-48
2023/05/23 02:56:14;;;;;;;0.20;0.20;;;;;;;21.37;53.65;101408.41;5095491;28;20661;-46
2023/05/23 02:58:40;;;;;;;0.20;0.20;;;;;;;21.37;53.44;101405.63;5095207;28;20071;-48
2023/05/23 03:01:07;;;;;;;0.20;0.20;;;;;;;21.37;53.71;101413.13;5094568;28;20048;-48
2023/05/23 03:03:33;;;;;;;0.25;0.25;;;;;;;21.37;53.57;101402.03;5095283;28;20047;-47
2023/05/23 03:06:00;;;;;;;0.20;0.20;;;;;;;21.36;53.55;101408.69;5094949;28;20047;-46
2023/05/23 03:08:26;;;;;;;0.20;0.20;;;;;;;21.36;53.58;101411.47;5075809;28;20059;-47
2023/05/23 03:10:52;;;;;;;0.15;0.15;;;;;;;21.35;53.56;101412.59;5094197;28;20146;-47
2023/05/23 03:13:18;;;;;;;0.20;0.20;;;;;;;21.34;53.70;101411.75;5094354;28;20130;-47
2023/05/23 03:15:43;;;;;;;0.10;0.10;;;;;;;21.35;53.40;101416.19;5094827;28;20089;-46
2023/05/23 03:18:10;;;;;;;0.20;0.20;;;;;;;21.36;53.37;101417.84;5076002;28;20275;-47
2023/05/23 03:20:35;;;;;;;0.30;0.30;;;;;;;21.37;53.44;101407.56;5094250;28;20052;-47
2023/05/23 03:23:01;;;;;;;0.20;0.20;;;;;;;21.35;53.80;101412.59;5075684;28;20130;-48
2023/05/23 03:25:27;;;;;;;0.20;0.20;;;;;;;21.36;53.36;101412.28;5094907;28;20070;-48
2023/05/23 03:27:53;;;;;;;0.10;0.10;;;;;;;21.36;53.42;101411.47;5094166;28;20555;-47
2023/05/23 03:30:19;;;;;;;0.20;0.20;;;;;;;21.35;53.62;101426.44;5093490;28;20096;-48
2023/05/23 03:32:45;;;;;;;0.20;0.20;;;;;;;21.35;53.51;101416.19;5094721;28;20063;-47
2023/05/23 03:35:11;;;;;;;0.20;0.20;;;;;;;21.35;53.64;101418.94;5076401;28;20052;-48
2023/05/23 03:37:36;;;;;;;0.20;0.20;;;;;;;21.34;53.54;101417.31;5094218;28;20046;-48
2023/05/23 03:40:03;;;;;;;0.20;0.20;;;;;;;21.34;53.63;101419.25;5094006;28;20384;-48
2023/05/23 03:42:29;;;;;;;0.20;0.20;;;;;;;21.35;53.46;101423.66;5094214;28;20255;-48
2023/05/23 03:44:55;;;;;;;0.20;0.20;;;;;;;21.34;53.57;101419.25;5094433;28;20040;-48
2023/05/23 03:47:23;;;;;;;0.20;0.20;;;;;;;21.35;53.51;101423.66;5094387;28;20043;-49
2023/05/23 03:49:49;;;;;;;0.20;0.20;;;;;;;21.34;53.50;101428.38;5075556;28;20044;-47
2023/05/23 03:52:14;;;;;;;0.20;0.20;;;;;;;21.33;53.43;101426.72;5094044;28;20059;-47
2023/05/23 03:54:40;;;;;;;0.20;0.20;;;;;;;21.35;53.53;101426.44;5079782;28;20050;-48
2023/05/23 03:57:06;;;;;;;0.20;0.20;;;;;;;21.35;53.33;101423.66;5098223;28;20051;-46
2023/05/23 03:59:32;;;;;;;0.10;0.10;;;;;;;21.35;53.41;101438.34;5078843;28;20078;-47
2023/05/23 04:01:59;;;;;;;0.20;0.20;;;;;;;21.35;53.31;101437.53;5097419;28;20052;-48
2023/05/23 04:04:26;;;;;;;0.20;0.20;;;;;;;21.35;53.27;101431.97;5097743;28;20138;-47
2023/05/23 04:06:52;;;;;;;0.20;0.20;;;;;;;21.36;53.20;101439.16;5097811;28;20501;-46
2023/05/23 04:09:18;;;;;;;0.20;0.20;;;;;;;21.35;53.24;101438.34;5078771;28;20047;-47
2023/05/23 04:11:44;;;;;;;0.20;0.20;;;;;;;21.34;53.44;101441.41;5097169;28;20043;-48
2023/05/23 04:14:09;;;;;;;0.20;0.20;;;;;;;21.34;53.28;101446.94;5079263;28;20036;-46
2023/05/23 04:16:36;;;;;;;0.17;0.17;;;;;;;21.32;53.38;101444.44;5097830;28;20526;-47
2023/05/23 04:19:03;;;;;;;0.10;0.10;;;;;;;21.34;53.48;101444.19;5079514;28;20048;-49
2023/05/23 04:21:31;;;;;;;0.20;0.20;;;;;;;21.33;53.35;101448.03;5078154;28;20047;-47
2023/05/23 04:23:56;;;;;;;0.20;0.20;;;;;;;21.34;53.38;101450.53;5096478;28;20097;-49
2023/05/23 04:26:22;;;;;;;0.10;0.10;;;;;;;21.32;54.05;101449.97;5097236;28;20553;-47
2023/05/23 04:28:48;;;;;;;0.20;0.20;;;;;;;21.33;53.06;101450.81;5097599;28;20035;-47
2023/05/23 04:31:14;;;;;;;0.20;0.20;;;;;;;21.32;53.27;101455.53;5099222;28;20071;-48
2023/05/23 04:33:40;;;;;;;0.10;0.10;;;;;;;21.33;53.30;101454.44;5099162;28;20456;-49
2023/05/23 04:36:08;;;;;;;0.20;0.20;;;;;;;21.34;53.22;101456.09;5078988;28;20534;-47
2023/05/23 04:38:34;;;;;;;0.15;0.15;;;;;;;21.33;53.17;101456.34;5096994;28;20515;-48
2023/05/23 04:41:00;;;;;;;0.13;0.13;;;;;;;21.32;53.28;101463.00;5096883;28;20047;-50
2023/05/23 04:43:28;;;;;;;0.20;0.20;;;;;;;21.32;53.09;101469.38;5096688;28;20560;-47
2023/05/23 04:45:53;;;;;;;0.17;0.17;;;;;;;21.33;52.93;101470.19;5096520;28;20071;-48
2023/05/23 04:48:20;;;;;;;0.17;0.17;;;;;;;21.33;53.29;101471.06;5094207;28;20414;-48
2023/05/23 04:50:47;;;;;;;0.20;0.20;;;;;;;21.33;53.21;101471.06;5095550;28;20047;-47
2023/05/23 04:53:13;;;;;;;0.10;0.10;;;;;;;21.34;52.83;101469.94;5077697;28;20044;-47
2023/05/23 04:55:38;;;;;;;0.10;0.10;;;;;;;21.33;52.83;101468.28;5071092;28;20039;-48
2023/05/23 04:58:04;;;;;;;0.20;0.20;;;;;;;21.32;53.13;101471.31;5091229;28;20032;-47
2023/05/23 05:00:30;;;;;;;0.22;0.22;;;;;;;21.32;53.19;101472.16;5096016;28;20206;-48
2023/05/23 05:02:56;;;;;;;0.20;0.20;;;;;;;21.32;53.09;101474.91;5093632;28;20051;-47
2023/05/23 05:05:21;;;;;;;0.20;0.20;;;;;;;21.34;52.79;101469.13;5089882;28;20481;-48
2023/05/23 05:07:47;;;;;;;0.20;0.20;;;;;;;21.33;52.79;101476.59;5093721;28;20046;-48
2023/05/23 05:10:15;;;;;;;0.20;0.20;;;;;;;21.33;52.97;101478.50;5095477;28;20052;-48
2023/05/23 05:12:44;;;;;;;0.20;0.20;;;;;;;21.34;52.91;101485.75;5105340;28;20483;-50
2023/05/23 05:15:10;;;;;;;0.20;0.20;;;;;;;21.34;52.43;101483.78;5089236;28;20052;-47
2023/05/23 05:17:37;;;;;;;0.20;0.20;;;;;;;21.33;52.97;101471.06;5095553;28;20040;-48
2023/05/23 05:20:07;;;;;;;0.20;0.20;;;;;;;21.34;52.38;101480.19;5091172;28;20125;-47
2023/05/23 05:22:39;;;;;;;0.20;0.20;;;;;;;21.35;52.88;101487.38;5081413;28;20039;-47
2023/05/23 05:25:06;;;;;;;0.20;0.20;;;;;;;21.35;52.84;101487.38;5077112;28;20068;-46
2023/05/23 05:27:32;;;;;;;0.20;0.20;;;;;;;21.34;52.60;101497.66;5102861;28;20066;-47
2023/05/23 05:30:03;;;;;;;0.20;0.20;;;;;;;21.34;52.92;101499.59;5081643;28;20047;-46
2023/05/23 05:32:32;;;;;;;0.20;0.20;;;;;;;21.34;52.40;101505.13;5095755;28;20052;-49
2023/05/23 05:35:00;;;;;;;0.20;0.20;;;;;;;21.34;52.50;101505.13;5087496;28;20472;-48
2023/05/23 05:37:25;;;;;;;0.20;0.20;;;;;;;21.32;52.05;101507.34;5087948;28;20318;-47
2023/05/23 05:39:53;;;;;;;0.10;0.10;;;;;;;21.33;52.13;101514.53;5069393;28;20383;-48
2023/05/23 05:42:20;;;;;;;0.20;0.20;;;;;;;21.34;52.63;101508.72;5091944;28;20074;-47
2023/05/23 05:44:46;;;;;;;0.20;0.20;;;;;;;21.34;52.40;101517.03;5090490;28;20043;-47
2023/05/23 05:47:12;;;;;;;0.10;0.10;;;;;;;21.34;52.69;101518.97;5068595;28;20044;-48
2023/05/23 05:49:38;;;;;;;0.20;0.20;;;;;;;21.33;51.80;101523.69;5082999;28;20138;-49
2023/05/23 05:52:05;;;;;;;0.20;0.20;;;;;;;21.33;52.09;101523.69;5082542;28;20101;-51
2023/05/23 05:54:31;;;;;;;0.10;0.10;;;;;;;21.34;52.36;101528.13;5065413;28;20059;-47
2023/05/23 05:56:57;;;;;;;0.20;0.20;;;;;;;21.33;52.68;101517.31;5085552;28;20330;-49
2023/05/23 05:59:23;;;;;;;0.20;0.20;;;;;;;21.33;52.30;101526.47;5063308;28;20051;-49
2023/05/23 06:01:50;;;;;;;0.20;0.20;;;;;;;21.33;52.67;101529.25;5078859;28;20586;-50
2023/05/23 06:04:16;;;;;;;0.15;0.15;;;;;;;21.34;52.52;101530.06;5084774;28;20047;-48
2023/05/23 06:06:42;;;;;;;0.20;0.20;;;;;;;21.34;52.59;101518.97;5067492;28;20039;-47
2023/05/23 06:09:07;;;;;;;0.10;0.10;;;;;;;21.35;52.22;101529.78;5080875;28;20525;-51
2023/05/23 06:11:33;;;;;;;0.10;0.10;;;;;;;21.33;52.63;101529.25;5085424;28;20062;-48
2023/05/23 06:14:00;;;;;;;0.32;0.20;;;;;;;21.33;52.34;101536.69;5080032;28;20404;-47
2023/05/23 06:16:26;;;;;;;0.10;0.10;;;;;;;21.34;52.57;101538.38;5089612;28;20317;-47
2023/05/23 06:18:52;;;;;;;0.20;0.20;;;;;;;21.33;52.45;101536.69;5086684;28;20097;-48
2023/05/23 06:21:17;;;;;;;0.20;0.20;;;;;;;21.33;52.62;101532.00;5091755;28;20043;-51
2023/05/23 06:23:43;;;;;;;0.20;0.20;;;;;;;21.33;52.81;101532.00;5097217;28;20108;-50
2023/05/23 06:26:09;;;;;;;0.20;0.20;;;;;;;21.33;52.36;101540.31;5081696;28;20048;-47
2023/05/23 06:28:38;;;;;;;0.10;0.10;;;;;;;21.21;54.27;101539.75;5084424;28;20104;-55
2023/05/23 06:31:04;;;;;;;0.20;0.20;;;;;;;21.27;53.68;101539.44;5071882;28;20055;-48
2023/05/23 06:33:30;;;;;;;0.22;0.22;;;;;;;21.31;53.54;101545.25;5075301;28;20040;-48
2023/05/23 06:35:56;;;;;;;0.20;0.20;;;;;;;21.30;53.00;101541.66;5100941;28;20646;-48
2023/05/23 06:38:22;;;;;;;0.20;0.20;;;;;;;21.30;52.84;101543.59;5085599;28;20126;-48
2023/05/23 06:40:47;;;;;;;0.10;0.10;;;;;;;21.30;52.60;101549.97;5088332;28;20040;-50
2023/05/23 06:43:13;;;;;;;0.20;0.20;;;;;;;21.32;52.51;101548.88;5094361;28;20050;-47
2023/05/23 06:45:39;;;;;;;0.20;0.20;;;;;;;21.34;52.38;101555.81;5086582;28;20070;-48
2023/05/23 06:48:05;;;;;;;0.20;0.20;;;;;;;21.34;52.54;101550.28;5056858;28;20051;-55
2023/05/23 06:50:30;;;;;;;0.20;0.20;;;;;;;21.35;52.35;101551.13;5078623;28;20047;-51
2023/05/23 06:52:56;;;;;;;0.20;0.20;;;;;;;21.34;52.26;101547.50;5061446;28;20051;-48
2023/05/23 06:55:22;;;;;;;0.20;0.20;;;;;;;21.35;52.26;101549.16;5062127;28;20830;-47
2023/05/23 06:57:50;;;;;;;0.20;0.20;;;;;;;21.35;52.40;101560.25;5069322;28;20391;-47
2023/05/23 07:00:17;;;;;;;0.10;0.10;;;;;;;21.36;52.17;101561.06;5036235;28;20067;-47
2023/05/23 07:02:44;;;;;;;0.20;0.20;;;;;;;21.34;52.25;101566.09;5051012;28;20040;-48
2023/05/23 07:05:10;;;;;;;0.10;0.10;;;;;;;21.36;52.15;101561.06;5047993;28;20065;-47
2023/05/23 07:07:36;;;;;;;0.20;0.20;;;;;;;21.34;52.17;101558.59;5043110;28;20435;-47
2023/05/23 07:10:01;;;;;;;0.20;0.20;;;;;;;21.36;52.41;101561.06;5054097;28;20054;-47
2023/05/23 07:12:27;;;;;;;0.20;0.20;;;;;;;21.35;52.34;101562.19;5067910;28;20048;-47
2023/05/23 07:14:53;;;;;;;0.20;0.20;;;;;;;21.37;52.40;101565.50;5064037;28;20543;-49
2023/05/23 07:17:18;;;;;;;0.20;0.20;;;;;;;21.37;52.31;101576.59;5080646;28;20048;-49
2023/05/23 07:19:45;;;;;;;0.20;0.20;;;;;;;21.37;52.25;101576.59;5070045;28;20062;-50
2023/05/23 07:22:10;;;;;;;0.20;0.20;;;;;;;21.36;52.15;101577.69;5080824;28;20047;-48
2023/05/23 07:24:36;;;;;;;0.17;0.17;;;;;;;21.37;52.09;101582.94;5083840;28;20035;-47
2023/05/23 07:27:02;;;;;;;0.10;0.10;;;;;;;21.37;52.36;101590.44;5090740;27;20068;-48
2023/05/23 07:29:28;;;;;;;0.20;0.20;;;;;;;21.39;52.09;101591.84;5083040;28;20100;-48
2023/05/23 07:31:54;;;;;;;0.20;0.20;;;;;;;21.40;52.23;101587.94;5047936;28;20052;-47
2023/05/23 07:34:19;;;;;;;0.20;0.20;;;;;;;21.41;52.44;101597.09;5085002;28;20056;-45
2023/05/23 07:36:46;;;;;;;0.20;0.20;;;;;;;21.40;52.74;101590.72;5085024;28;20044;-48
2023/05/23 07:39:12;;;;;;;0.20;0.20;;;;;;;21.43;52.83;101604.03;5067436;28;20047;-48
2023/05/23 07:41:37;;;;;;;0.20;0.20;;;;;;;21.40;52.95;101610.09;5079377;28;20390;-48
2023/05/23 07:44:03;;;;;;;0.20;0.20;;;;;;;21.44;52.65;101602.91;5081881;28;20560;-46
2023/05/23 07:46:29;;;;;;;0.20;0.20;;;;;;;21.43;52.62;101609.56;5082156;28;20062;-48
2023/05/23 07:48:55;;;;;;;0.10;0.10;;;;;;;21.43;52.95;101615.09;5079720;28;20134;-47
2023/05/23 07:51:21;;;;;;;0.20;0.20;;;;;;;21.44;52.60;101607.63;5079673;28;20097;-50
2023/05/23 07:53:46;;;;;;;0.20;0.20;;;;;;;21.43;52.43;101614.28;5079343;28;20222;-47
2023/05/23 07:56:12;;;;;;;0.20;0.20;;;;;;;21.42;52.43;101613.44;5083180;28;20496;-47
2023/05/23 07:58:38;;;;;;;0.20;0.20;;;;;;;21.42;52.52;101615.38;5074049;28;20062;-49
2023/05/23 08:01:04;;;;;;;0.20;0.20;;;;;;;21.42;52.47;101612.63;5080695;28;20054;-48
2023/05/23 08:03:30;;;;;;;0.20;0.20;;;;;;;21.43;52.32;101617.03;5079204;28;20498;-47
2023/05/23 08:05:55;;;;;;;0.20;0.20;;;;;;;21.43;52.20;101614.28;5074014;28;20442;-48
2023/05/23 08:08:21;;;;;;;0.20;0.20;;;;;;;21.44;52.26;101625.06;5082450;28;20534;-47
2023/05/23 08:10:47;;;;;;;0.30;0.20;;;;;;;21.44;52.21;101619.53;5072108;28;20047;-47
2023/05/23 08:13:13;;;;;;;0.20;0.20;;;;;;;21.45;51.71;101626.72;5075524;28;20298;-47
2023/05/23 08:15:38;;;;;;;0.10;0.10;;;;;;;21.45;52.00;101628.66;5069878;28;20054;-48
2023/05/23 08:18:04;;;;;;;0.20;0.20;;;;;;;21.43;52.16;101628.97;5076119;28;20348;-46
2023/05/23 08:20:30;;;;;;;0.20;0.20;;;;;;;21.45;52.08;101632.25;5054626;28;20361;-46
2023/05/23 08:22:57;;;;;;;0.20;0.20;;;;;;;21.46;52.11;101630.31;5086068;28;20051;-47
2023/05/23 08:25:23;;;;;;;0.20;0.20;;;;;;;21.47;52.06;101643.91;5078662;28;20042;-46
2023/05/23 08:27:50;;;;;;;0.20;0.20;;;;;;;21.47;52.13;101648.63;5082537;28;20452;-46
2023/05/23 08:30:15;;;;;;;0.20;0.20;;;;;;;21.48;52.28;101650.28;5081939;28;20570;-47
2023/05/23 08:32:41;;;;;;;0.20;0.20;;;;;;;21.55;51.74;101650.84;5077617;28;20104;-47
2023/05/23 08:35:07;;;;;;;0.20;0.20;;;;;;;21.52;51.45;101652.22;5056771;28;20052;-48
2023/05/23 08:37:33;;;;;;;0.10;0.10;;;;;;;21.32;52.03;101652.22;5042603;28;20331;-46
2023/05/23 08:39:58;;;;;;;0.20;0.20;;;;;;;21.40;51.56;101659.97;5068393;28;20048;-47
2023/05/23 08:42:25;;;;;;;0.20;0.20;;;;;;;21.42;51.39;101662.50;5069750;28;20464;-46
2023/05/23 08:44:51;;;;;;;0.20;0.20;;;;;;;21.42;51.37;101663.31;5065316;28;20048;-46
2023/05/23 08:47:18;;;;;;;0.20;0.20;;;;;;;21.43;51.10;101666.91;5054296;28;20824;-47
2023/05/23 08:49:44;;;;;;;0.17;0.17;;;;;;;21.43;51.03;101667.75;5083495;28;20083;-46
2023/05/23 08:52:12;;;;;;;0.20;0.20;;;;;;;21.42;51.09;101668.88;5082905;28;20102;-47
2023/05/23 08:54:37;;;;;;;0.10;0.10;;;;;;;21.43;50.57;101675.22;5079696;28;20090;-48
2023/05/23 08:57:03;;;;;;;0.20;0.20;;;;;;;21.43;51.13;101678.84;5083620;28;20047;-46
2023/05/23 08:59:31;;;;;;;0.20;0.20;;;;;;;21.43;51.01;101678.84;5089189;28;20343;-46
2023/05/23 09:01:57;;;;;;;0.17;0.17;;;;;;;21.44;50.85;101680.50;5077417;28;20055;-48
2023/05/23 09:04:23;;;;;;;0.20;0.20;;;;;;;21.45;50.87;101682.16;5074226;28;20095;-46
2023/05/23 09:06:49;;;;;;;0.10;0.10;;;;;;;21.45;50.84;101686.84;5075518;28;20048;-47
2023/05/23 09:09:15;;;;;;;0.20;0.20;;;;;;;21.45;50.92;101693.22;5074521;28;20079;-47
2023/05/23 09:11:44;;;;;;;0.20;0.20;;;;;;;21.45;51.15;101697.94;5077784;28;20446;-47
2023/05/23 09:14:13;;;;;;;0.20;0.20;;;;;;;21.45;51.13;101695.16;5066222;28;20040;-47
2023/05/23 09:16:39;;;;;;;0.13;0.13;;;;;;;21.44;51.16;101707.38;5082648;28;20089;-46
2023/05/23 09:19:13;;;;;;;0.20;0.20;;;;;;;21.47;51.04;101698.50;5075196;28;20047;-47
2023/05/23 09:21:43;;;;;;;0.10;0.10;;;;;;;21.48;51.17;101711.25;5068050;28;20479;-47
2023/05/23 09:24:09;;;;;;;0.13;0.13;;;;;;;21.46;50.68;101706.00;5063279;28;20063;-47
2023/05/23 09:26:35;;;;;;;0.15;0.15;;;;;;;21.45;50.66;101711.81;5082042;28;20039;-47
2023/05/23 09:29:04;;;;;;;0.20;0.20;;;;;;;21.45;50.53;101712.63;5089972;28;20054;-49
2023/05/23 09:31:31;;;;;;;0.10;0.10;;;;;;;21.45;50.66;101722.88;5085991;28;20093;-48
2023/05/23 09:33:57;;;;;;;0.10;0.10;;;;;;;21.43;50.50;101719.56;5062053;28;20043;-47
2023/05/23 09:36:28;;;;;;;0.10;0.10;;;;;;;21.43;50.48;101716.81;5071320;28;20048;-46
2023/05/23 09:38:53;;;;;;;0.10;0.10;;;;;;;21.45;50.31;101725.66;5047319;28;20067;-47
2023/05/23 09:41:20;;;;;;;0.20;0.20;;;;;;;21.41;50.28;101733.69;5068781;28;20101;-47
2023/05/23 09:43:50;;;;;;;0.10;0.10;;;;;;;21.42;50.17;101732.59;5065110;28;20083;-46
2023/05/23 09:46:17;;;;;;;0.20;0.20;;;;;;;21.43;50.14;101731.50;5050056;28;20407;-46
2023/05/23 09:48:50;;;;;;;0.20;0.20;;;;;;;21.44;49.85;101732.31;5079447;28;20252;-46
2023/05/23 09:51:19;;;;;;;0.10;0.10;;;;;;;21.43;49.79;101730.66;5055119;28;20083;-47
2023/05/23 09:53:45;;;;;;;0.20;0.20;;;;;;;21.03;50.10;101727.53;5068135;28;20196;-50
2023/05/23 09:56:11;;;;;;;0.20;0.20;;;;;;;21.32;49.65;101735.34;5093669;28;20051;-48
2023/05/23 09:58:39;;;;;;;0.20;0.20;;;;;;;21.37;49.24;101734.50;5082761;28;20040;-48
2023/05/23 10:01:06;;;;;;;0.20;0.20;;;;;;;21.40;49.41;101745.06;5090886;28;20087;-47
2023/05/23 10:03:36;;;;;;;0.10;0.10;;;;;;;21.40;49.60;101739.50;5080871;28;21170;-46
2023/05/23 10:06:07;;;;;;;0.10;0.10;;;;;;;21.40;49.59;101745.88;5083727;28;20442;-46
2023/05/23 10:08:39;;;;;;;0.20;0.20;;;;;;;21.41;49.85;101743.94;5066599;28;20047;-46
2023/05/23 10:13:50;;;;;;;0.15;0.15;;;;;;;21.41;49.53;101744.78;5146601;27;20117;-48
2023/05/23 10:16:38;;;;;;;0.10;0.10;;;;;;;21.44;49.61;101737.84;5124532;27;20047;-47
2023/05/23 10:19:09;;;;;;;0.10;0.10;;;;;;;21.07;50.40;101743.59;5092453;27;20039;-47
2023/05/23 10:21:41;;;;;;;0.20;0.20;;;;;;;21.33;49.64;101742.56;5119745;27;20043;-48
2023/05/23 10:24:10;;;;;;;0.10;0.10;;;;;;;21.39;49.50;101747.00;5102353;28;20270;-49
2023/05/23 10:26:36;;;;;;;0.20;0.20;;;;;;;21.41;49.52;101743.94;5059980;28;20075;-49
2023/05/23 10:29:02;;;;;;;0.20;0.20;;;;;;;21.41;49.25;101750.31;5104586;27;20048;-48
2023/05/23 10:31:28;;;;;;;0.20;0.20;;;;;;;21.44;49.25;101751.72;5086017;28;20047;-48
2023/05/23 10:33:59;;;;;;;0.20;0.20;;;;;;;21.43;49.41;101753.66;5096856;27;20054;-48
2023/05/23 10:36:33;;;;;;;0.20;0.20;;;;;;;20.94;50.06;101756.00;5093161;27;20309;-55
2023/05/23 10:39:21;;;;;;;0.30;0.30;;;;;;;20.25;51.33;101754.31;5089145;27;20322;-57
2023/05/23 10:41:50;;;;;;;0.32;0.32;;;;;;;20.17;50.44;101752.91;5068999;27;20058;-56
2023/05/23 10:44:24;;;;;;;0.20;0.20;;;;;;;20.16;50.88;101744.84;5086575;27;20047;-57
2023/05/23 10:46:56;;;;;;;0.20;0.20;;;;;;;20.80;50.17;101750.16;5090129;27;20043;-48
2023/05/23 10:49:36;;;;;;;0.20;0.20;;;;;;;21.12;49.54;101746.38;5065981;27;20150;-50
2023/05/23 10:52:01;;;;;;;0.13;0.13;;;;;;;21.23;49.43;101751.66;5094953;27;20583;-47
2023/05/23 10:54:33;;;;;;;0.20;0.20;;;;;;;21.30;49.42;101755.00;5097029;28;20054;-47
2023/05/23 10:57:03;;;;;;;0.20;0.20;;;;;;;21.35;49.49;101751.44;5081637;28;20079;-49
2023/05/23 10:59:29;;;;;;;0.10;0.10;;;;;;;21.37;49.71;101757.50;5084566;28;20043;-50
2023/05/23 11:01:55;;;;;;;0.20;0.20;;;;;;;21.38;49.64;101752.81;5093385;28;20081;-52
2023/05/23 11:04:25;;;;;;;0.20;0.20;;;;;;;21.41;49.69;101752.25;5095830;28;20343;-48
2023/05/23 11:06:53;;;;;;;0.20;0.20;;;;;;;21.40;49.60;101751.44;5094032;27;20299;-52
2023/05/23 11:09:20;;;;;;;0.20;0.20;;;;;;;21.42;49.77;101756.72;5082166;27;20177;-47
2023/05/23 11:12:02;;;;;;;0.20;0.20;;;;;;;21.43;49.88;101748.13;5087132;28;20385;-47
2023/05/23 11:17:30;;;;;;;0.20;0.20;;;;;;;21.44;50.13;101751.72;5139532;27;20628;-50
2023/05/23 11:20:05;;;;;;;0.20;0.20;;;;;;;21.44;50.14;101752.53;5112361;27;20043;-51
2023/05/23 11:22:32;;;;;;;0.20;0.20;;;;;;;21.45;50.31;101758.91;5137492;27;20078;-49
2023/05/23 11:24:58;;;;;;;0.10;0.10;;;;;;;21.46;50.11;101755.88;5139538;27;20050;-47
2023/05/23 11:27:27;;;;;;;0.20;0.20;;;;;;;21.45;50.14;101754.19;5139031;27;20041;-50
2023/05/23 11:29:56;;;;;;;0.20;0.20;;;;;;;21.46;50.31;101760.56;5118410;27;20424;-51